createdAt,value
2018-10-02T00:01:16.877Z,10.00
2018-10-02T00:03:45.901Z,10.00
2018-10-02T00:06:14.886Z,9.90
2018-10-02T00:08:43.900Z,9.90
2018-10-02T00:11:18.153Z,9.80
2018-10-02T00:13:52.565Z,9.80
2018-10-02T00:16:21.709Z,9.80
2018-10-02T00:18:50.829Z,9.80
2018-10-02T00:21:20.034Z,9.70
2018-10-02T00:23:49.221Z,9.70
2018-10-02T00:26:18.824Z,9.70
2018-10-02T00:28:47.922Z,9.60
2018-10-02T00:31:17.133Z,9.70
2018-10-02T00:33:46.085Z,9.70
2018-10-02T00:36:15.310Z,9.70
2018-10-02T00:38:44.369Z,9.70
2018-10-02T00:41:13.321Z,9.70
2018-10-02T00:43:42.546Z,9.70
2018-10-02T00:46:11.557Z,9.80
2018-10-02T00:48:40.545Z,9.70
2018-10-02T00:51:09.685Z,9.60
2018-10-02T00:53:38.745Z,9.50
2018-10-02T00:56:07.929Z,9.40
2018-10-02T00:58:37.065Z,9.50
2018-10-02T01:01:06.693Z,9.40
2018-10-02T01:03:35.713Z,9.40
2018-10-02T01:06:04.748Z,9.40
2018-10-02T01:08:33.814Z,9.40
2018-10-02T01:11:02.825Z,9.40
2018-10-02T01:13:31.825Z,9.30
2018-10-02T01:16:00.885Z,9.30
2018-10-02T01:18:29.915Z,9.30
2018-10-02T01:20:59.022Z,9.30
2018-10-02T01:23:28.205Z,9.40
2018-10-02T01:25:57.492Z,9.40
2018-10-02T01:28:26.597Z,9.30
2018-10-02T01:30:55.704Z,9.30
2018-10-02T01:33:24.881Z,9.30
2018-10-02T01:35:54.121Z,9.20
2018-10-02T01:38:23.369Z,9.20
2018-10-02T01:40:52.479Z,9.20
2018-10-02T01:43:21.745Z,9.20
2018-10-02T01:45:50.740Z,9.20
2018-10-02T01:48:19.732Z,9.20
2018-10-02T01:50:48.869Z,9.20
2018-10-02T01:53:18.032Z,9.10
2018-10-02T01:55:47.163Z,9.00
2018-10-02T01:58:16.557Z,8.90
2018-10-02T02:00:45.617Z,8.70
2018-10-02T02:03:14.750Z,8.50
2018-10-02T02:05:43.849Z,8.40
2018-10-02T02:08:13.036Z,8.20
2018-10-02T02:10:42.109Z,8.20
2018-10-02T02:13:11.235Z,8.00
2018-10-02T02:15:40.413Z,8.00
2018-10-02T02:18:09.493Z,7.90
2018-10-02T02:20:38.615Z,7.80
2018-10-02T02:23:07.793Z,7.80
2018-10-02T02:25:36.883Z,7.70
2018-10-02T02:28:06.093Z,7.70
2018-10-02T02:30:35.289Z,7.60
2018-10-02T02:33:04.363Z,7.60
2018-10-02T02:35:33.379Z,7.60
2018-10-02T02:38:03.289Z,7.60
2018-10-02T02:40:32.464Z,7.50
2018-10-02T02:43:02.211Z,7.50
2018-10-02T02:45:31.389Z,7.50
2018-10-02T02:48:05.497Z,7.40
2018-10-02T02:50:39.706Z,7.40
2018-10-02T02:53:11.047Z,7.40
2018-10-02T02:55:40.171Z,7.30
2018-10-02T02:58:09.233Z,7.10
2018-10-02T03:00:38.469Z,7.10
2018-10-02T03:03:07.652Z,7.10
2018-10-02T03:05:37.310Z,7.00
2018-10-02T03:08:07.495Z,6.90
2018-10-02T03:10:36.561Z,6.80
2018-10-02T03:13:06.157Z,6.80
2018-10-02T03:15:35.170Z,6.70
2018-10-02T03:18:04.239Z,6.60
2018-10-02T03:20:33.241Z,6.60
2018-10-02T03:23:02.249Z,6.60
2018-10-02T03:25:31.318Z,6.60
2018-10-02T03:28:00.329Z,6.60
2018-10-02T03:30:29.446Z,6.60
2018-10-02T03:32:58.729Z,6.60
2018-10-02T03:35:27.802Z,6.60
2018-10-02T03:37:57.011Z,6.70
2018-10-02T03:40:25.981Z,6.70
2018-10-02T03:42:54.977Z,6.80
2018-10-02T03:45:23.995Z,6.80
2018-10-02T03:47:53.083Z,6.80
2018-10-02T03:50:22.293Z,6.90
2018-10-02T03:52:51.857Z,6.90
2018-10-02T03:55:20.986Z,7.00
2018-10-02T03:57:50.053Z,7.00
2018-10-02T04:00:19.342Z,7.00
2018-10-02T04:02:48.367Z,7.10
2018-10-02T04:05:17.444Z,7.20
2018-10-02T04:07:46.616Z,7.20
2018-10-02T04:10:15.734Z,7.20
2018-10-02T04:12:44.725Z,7.20
2018-10-02T04:15:13.529Z,7.30
2018-10-02T04:17:42.309Z,7.30
2018-10-02T04:20:11.529Z,7.30
2018-10-02T04:22:40.353Z,7.40
2018-10-02T04:25:09.589Z,7.40
2018-10-02T04:27:38.945Z,7.40
2018-10-02T04:30:08.422Z,7.40
2018-10-02T04:32:37.593Z,7.30
2018-10-02T04:35:06.913Z,7.30
2018-10-02T04:37:36.741Z,7.30
2018-10-02T04:40:06.597Z,7.40
2018-10-02T04:42:35.609Z,7.40
2018-10-02T04:45:04.945Z,7.50
2018-10-02T04:47:34.125Z,7.50
2018-10-02T04:50:03.310Z,7.50
2018-10-02T04:52:32.417Z,7.50
2018-10-02T04:55:01.575Z,7.60
2018-10-02T04:57:30.924Z,7.50
2018-10-02T05:00:00.223Z,7.60
2018-10-02T05:02:29.449Z,7.60
2018-10-02T05:04:58.582Z,7.60
2018-10-02T05:07:27.806Z,7.60
2018-10-02T05:09:56.885Z,7.60
2018-10-02T05:12:25.965Z,7.70
2018-10-02T05:14:55.234Z,7.70
2018-10-02T05:17:24.576Z,7.70
2018-10-02T05:19:53.614Z,7.80
2018-10-02T05:22:22.797Z,7.80
2018-10-02T05:24:51.948Z,7.90
2018-10-02T05:27:21.140Z,7.90
2018-10-02T05:29:50.177Z,7.90
2018-10-02T05:32:19.337Z,8.00
2018-10-02T05:34:48.779Z,8.00
2018-10-02T05:37:17.966Z,8.00
2018-10-02T05:39:47.257Z,8.00
2018-10-02T05:42:16.437Z,8.00
2018-10-02T05:44:45.553Z,8.00
2018-10-02T05:47:14.736Z,8.00
2018-10-02T05:49:43.942Z,8.00
2018-10-02T05:52:13.041Z,8.00
2018-10-02T05:54:42.689Z,8.00
2018-10-02T05:57:11.828Z,8.00
2018-10-02T05:59:41.255Z,8.00
2018-10-02T06:02:10.500Z,8.00
2018-10-02T06:04:39.625Z,8.10
2018-10-02T06:07:08.869Z,8.10
2018-10-02T06:09:38.115Z,8.10
2018-10-02T06:12:06.976Z,8.20
2018-10-02T06:14:36.017Z,8.40
2018-10-02T06:17:05.421Z,8.50
2018-10-02T06:19:34.513Z,8.50
2018-10-02T06:22:04.233Z,8.60
2018-10-02T06:24:33.449Z,8.70
2018-10-02T06:27:02.596Z,8.80
2018-10-02T06:29:35.314Z,9.00
2018-10-02T06:32:04.721Z,9.20
2018-10-02T06:34:34.221Z,9.30
2018-10-02T06:37:03.369Z,9.50
2018-10-02T06:39:33.438Z,9.50
2018-10-02T06:42:02.874Z,9.60
2018-10-02T06:44:32.763Z,9.70
2018-10-02T06:47:02.041Z,9.70
2018-10-02T06:49:31.217Z,9.80
2018-10-02T06:52:00.365Z,9.80
2018-10-02T06:54:29.385Z,9.90
2018-10-02T06:56:58.468Z,9.90
2018-10-02T06:59:27.921Z,10.10
2018-10-02T07:01:56.985Z,10.20
2018-10-02T07:04:26.565Z,10.10
2018-10-02T07:06:55.590Z,10.10
2018-10-02T07:09:24.577Z,10.00
2018-10-02T07:11:53.590Z,10.00
2018-10-02T07:14:22.801Z,10.00
2018-10-02T07:16:52.500Z,9.90
2018-10-02T07:19:21.698Z,9.90
2018-10-02T07:21:50.778Z,9.90
2018-10-02T07:24:19.990Z,9.80
2018-10-02T07:26:49.449Z,9.70
2018-10-02T07:29:18.573Z,9.70
2018-10-02T07:31:47.775Z,10.00
2018-10-02T07:34:16.974Z,10.20
2018-10-02T07:36:46.068Z,10.20
2018-10-02T07:39:15.366Z,10.10
2018-10-02T07:41:44.636Z,10.10
2018-10-02T07:44:13.733Z,10.10
2018-10-02T07:46:42.845Z,10.10
2018-10-02T07:49:12.172Z,10.00
2018-10-02T07:51:41.949Z,10.00
2018-10-02T07:54:11.284Z,10.10
2018-10-02T07:56:40.672Z,10.30
2018-10-02T07:59:09.737Z,10.30
2018-10-02T08:01:39.038Z,10.20
2018-10-02T08:04:08.157Z,10.20
2018-10-02T08:06:38.144Z,10.20
2018-10-02T08:09:09.581Z,10.20
2018-10-02T08:11:38.823Z,10.10
2018-10-02T08:14:08.257Z,10.10
2018-10-02T08:16:37.773Z,10.10
2018-10-02T08:19:06.841Z,10.30
2018-10-02T08:21:35.957Z,10.40
2018-10-02T08:24:05.051Z,10.40
2018-10-02T08:26:34.154Z,10.60
2018-10-02T08:29:03.171Z,10.60
2018-10-02T08:31:32.281Z,10.60
2018-10-02T08:34:01.369Z,10.80
2018-10-02T08:36:30.475Z,10.80
2018-10-02T08:39:00.036Z,10.70
2018-10-02T08:41:29.293Z,10.60
2018-10-02T08:43:58.561Z,10.60
2018-10-02T08:46:27.702Z,10.60
2018-10-02T08:48:56.849Z,10.60
2018-10-02T08:51:25.961Z,10.70
2018-10-02T08:53:55.343Z,10.60
2018-10-02T08:56:24.849Z,10.60
2018-10-02T08:58:54.009Z,10.60
2018-10-02T09:01:23.172Z,10.60
2018-10-02T09:03:52.248Z,10.80
2018-10-02T09:06:21.473Z,10.90
2018-10-02T09:08:50.689Z,10.70
2018-10-02T09:11:19.817Z,10.40
2018-10-02T09:13:48.929Z,10.20
2018-10-02T09:16:18.195Z,10.10
2018-10-02T09:18:47.338Z,10.00
2018-10-02T09:21:16.635Z,10.10
2018-10-02T09:23:45.887Z,10.10
2018-10-02T09:26:15.002Z,10.10
2018-10-02T09:28:44.141Z,10.00
2018-10-02T09:31:18.442Z,10.00
2018-10-02T09:33:52.946Z,10.00
2018-10-02T09:36:26.991Z,10.00
2018-10-02T09:39:01.401Z,10.00
2018-10-02T09:41:35.489Z,10.10
2018-10-02T09:44:05.302Z,10.10
2018-10-02T09:46:34.277Z,10.10
2018-10-02T09:49:03.482Z,10.20
2018-10-02T09:51:32.615Z,10.20
2018-10-02T09:54:01.799Z,10.40
2018-10-02T09:56:36.164Z,10.50
2018-10-02T09:59:05.405Z,10.60
2018-10-02T10:01:39.571Z,10.50
2018-10-02T10:04:08.915Z,10.50
2018-10-02T10:06:37.996Z,10.40
2018-10-02T10:09:08.196Z,10.40
2018-10-02T10:11:37.745Z,10.30
2018-10-02T10:14:07.021Z,7.40
2018-10-02T10:16:36.228Z,10.20
2018-10-02T10:19:05.617Z,10.40
2018-10-02T10:21:34.778Z,10.40
2018-10-02T10:24:03.957Z,10.40
2018-10-02T10:26:33.138Z,10.40
2018-10-02T10:29:02.318Z,10.20
2018-10-02T10:31:31.361Z,10.10
2018-10-02T10:34:00.481Z,10.00
2018-10-02T10:36:29.484Z,9.90
2018-10-02T10:38:58.713Z,9.90
2018-10-02T10:41:27.773Z,10.00
2018-10-02T10:43:56.865Z,10.10
2018-10-02T10:46:26.148Z,10.30
2018-10-02T10:48:55.149Z,10.40
2018-10-02T10:51:24.164Z,10.90
2018-10-02T10:53:53.161Z,11.10
2018-10-02T10:56:22.183Z,10.90
2018-10-02T10:58:51.271Z,10.60
2018-10-02T11:01:20.351Z,10.60
2018-10-02T11:03:49.379Z,10.40
2018-10-02T11:06:18.925Z,10.40
2018-10-02T11:08:47.929Z,10.40
2018-10-02T11:11:17.107Z,10.20
2018-10-02T11:13:46.122Z,10.60
2018-10-02T11:16:15.213Z,11.30
2018-10-02T11:18:44.301Z,11.30
2018-10-02T11:21:13.381Z,11.10
2018-10-02T11:23:42.517Z,11.00
2018-10-02T11:26:11.701Z,10.60
2018-10-02T11:28:40.885Z,10.50
2018-10-02T11:31:10.269Z,10.40
2018-10-02T11:33:39.361Z,10.30
2018-10-02T11:36:08.474Z,10.30
2018-10-02T11:38:37.497Z,10.30
2018-10-02T11:41:06.753Z,10.50
2018-10-02T11:43:35.865Z,10.70
2018-10-02T11:46:05.079Z,10.90
2018-10-02T11:48:34.253Z,11.20
2018-10-02T11:51:03.327Z,11.10
2018-10-02T11:53:32.463Z,11.00
2018-10-02T11:56:01.529Z,10.60
2018-10-02T11:58:30.646Z,10.40
2018-10-02T12:00:59.810Z,10.20
2018-10-02T12:03:29.085Z,10.30
2018-10-02T12:05:58.213Z,10.20
2018-10-02T12:08:27.333Z,10.30
2018-10-02T12:10:56.833Z,10.20
2018-10-02T12:13:26.058Z,10.20
2018-10-02T12:15:55.236Z,10.20
2018-10-02T12:18:24.296Z,10.10
2018-10-02T12:20:53.281Z,10.00
2018-10-02T12:23:22.722Z,10.00
2018-10-02T12:25:51.889Z,9.90
2018-10-02T12:28:20.901Z,9.90
2018-10-02T12:30:49.996Z,9.90
2018-10-02T12:33:18.964Z,9.80
2018-10-02T12:35:47.981Z,9.80
2018-10-02T12:38:17.073Z,9.90
2018-10-02T12:40:46.265Z,10.10
2018-10-02T12:43:15.410Z,10.40
2018-10-02T12:45:44.697Z,10.30
2018-10-02T12:48:13.841Z,10.10
2018-10-02T12:50:43.110Z,10.00
2018-10-02T12:53:12.317Z,9.90
2018-10-02T12:55:41.318Z,9.70
2018-10-02T12:58:10.454Z,9.60
2018-10-02T13:00:39.651Z,9.50
2018-10-02T13:03:08.813Z,9.50
2018-10-02T13:05:37.825Z,9.50
2018-10-02T13:08:06.929Z,9.60
2018-10-02T13:10:36.106Z,9.60
2018-10-02T13:13:05.284Z,9.60
2018-10-02T13:15:34.417Z,9.50
2018-10-02T13:18:03.542Z,9.70
2018-10-02T13:20:32.701Z,10.00
2018-10-02T13:23:01.815Z,10.20
2018-10-02T13:25:31.096Z,10.30
2018-10-02T13:28:00.178Z,10.50
2018-10-02T13:30:29.396Z,10.70
2018-10-02T13:32:58.472Z,11.30
2018-10-02T13:35:27.557Z,11.40
2018-10-02T13:37:56.787Z,11.60
2018-10-02T13:40:25.837Z,12.20
2018-10-02T13:42:54.944Z,12.50
2018-10-02T13:45:24.171Z,12.50
2018-10-02T13:47:53.233Z,12.30
2018-10-02T13:50:22.362Z,12.10
2018-10-02T13:52:51.685Z,12.00
2018-10-02T13:55:20.928Z,12.20
2018-10-02T13:57:50.145Z,12.80
2018-10-02T14:00:19.513Z,12.00
2018-10-02T14:02:48.900Z,12.20
2018-10-02T14:05:18.129Z,13.00
2018-10-02T14:07:47.250Z,12.70
2018-10-02T14:10:16.645Z,11.80
2018-10-02T14:12:45.822Z,11.50
2018-10-02T14:15:14.969Z,10.60
2018-10-02T14:17:43.998Z,10.00
2018-10-02T14:20:12.985Z,9.90
2018-10-02T14:22:41.985Z,9.80
2018-10-02T14:25:10.973Z,9.70
2018-10-02T14:27:39.985Z,9.40
2018-10-02T14:30:09.573Z,9.10
2018-10-02T14:32:39.189Z,8.90
2018-10-02T14:35:08.509Z,8.90
2018-10-02T14:37:37.718Z,8.70
2018-10-02T14:40:06.893Z,8.70
2018-10-02T14:42:35.973Z,8.70
2018-10-02T14:45:05.393Z,8.70
2018-10-02T14:47:34.491Z,8.60
2018-10-02T14:50:03.666Z,8.60
2018-10-02T14:52:32.676Z,8.70
2018-10-02T14:55:01.780Z,8.70
2018-10-02T14:57:30.949Z,8.60
2018-10-02T15:00:00.629Z,8.50
2018-10-02T15:02:29.865Z,8.50
2018-10-02T15:04:58.949Z,8.60
2018-10-02T15:09:57.349Z,8.70
2018-10-02T15:12:26.518Z,8.70
2018-10-02T15:14:55.667Z,8.70
2018-10-02T15:17:24.872Z,8.70
2018-10-02T15:19:53.950Z,8.80
2018-10-02T15:22:23.257Z,8.70
2018-10-02T15:24:52.558Z,8.80
2018-10-02T15:27:21.666Z,8.80
2018-10-02T15:29:50.858Z,8.70
2018-10-02T15:32:20.048Z,8.70
2018-10-02T15:34:49.446Z,8.70
2018-10-02T15:37:18.633Z,8.70
2018-10-02T15:39:47.813Z,8.70
2018-10-02T15:42:16.797Z,8.70
2018-10-02T15:44:45.889Z,8.70
2018-10-02T15:47:14.877Z,8.70
2018-10-02T15:49:43.895Z,8.70
2018-10-02T15:52:13.007Z,8.60
2018-10-02T15:54:42.172Z,8.60
2018-10-02T15:57:11.595Z,8.60
2018-10-02T15:59:40.798Z,8.60
2018-10-02T16:02:09.961Z,8.60
2018-10-02T16:04:38.978Z,8.60
2018-10-02T16:07:08.089Z,8.50
2018-10-02T16:09:37.277Z,8.50
2018-10-02T16:12:06.449Z,8.40
2018-10-02T16:14:35.889Z,8.40
2018-10-02T16:17:05.070Z,8.30
2018-10-02T16:19:34.150Z,8.30
2018-10-02T16:22:03.435Z,8.20
2018-10-02T16:24:32.434Z,8.20
2018-10-02T16:27:01.622Z,8.10
2018-10-02T16:29:30.673Z,8.10
2018-10-02T16:31:59.705Z,8.00
2018-10-02T16:34:28.730Z,8.00
2018-10-02T16:36:57.938Z,8.00
2018-10-02T16:39:26.993Z,7.90
2018-10-02T16:41:56.173Z,7.90
2018-10-02T16:44:25.227Z,7.90
2018-10-02T16:46:54.455Z,7.90
2018-10-02T16:49:23.473Z,7.90
2018-10-02T16:51:52.617Z,7.90
2018-10-02T16:54:21.671Z,7.90
2018-10-02T16:56:50.505Z,7.90
2018-10-02T16:59:19.579Z,7.90
2018-10-02T17:01:48.757Z,7.90
2018-10-02T17:04:17.849Z,7.80
2018-10-02T17:06:47.071Z,7.80
2018-10-02T17:09:16.850Z,7.90
2018-10-02T17:11:45.851Z,7.80
2018-10-02T17:14:15.197Z,7.80
2018-10-02T17:16:44.221Z,7.80
2018-10-02T17:19:13.237Z,7.70
2018-10-02T17:21:42.477Z,7.80
2018-10-02T17:24:11.521Z,7.70
2018-10-02T17:26:40.514Z,7.80
2018-10-02T17:29:09.770Z,7.80
2018-10-02T17:31:38.903Z,7.80
2018-10-02T17:34:08.297Z,7.80
2018-10-02T17:36:37.537Z,7.80
2018-10-02T17:39:08.986Z,7.80
2018-10-02T17:41:38.535Z,7.80
2018-10-02T17:44:07.865Z,7.80
2018-10-02T17:46:36.860Z,7.80
2018-10-02T17:49:06.101Z,7.80
2018-10-02T17:51:35.246Z,7.70
2018-10-02T17:54:04.357Z,7.70
2018-10-02T17:56:33.568Z,7.70
2018-10-02T17:59:02.750Z,7.70
2018-10-02T18:01:32.014Z,7.70
2018-10-02T18:04:01.255Z,7.60
2018-10-02T18:06:30.334Z,7.60
2018-10-02T18:08:59.522Z,7.60
2018-10-02T18:11:29.571Z,7.60
2018-10-02T18:13:59.504Z,7.60
2018-10-02T18:16:28.384Z,7.50
2018-10-02T18:18:57.272Z,7.60
2018-10-02T18:21:27.200Z,7.50
2018-10-02T18:23:56.025Z,7.50
2018-10-02T18:26:24.899Z,7.50
2018-10-02T18:28:53.739Z,7.50
2018-10-02T18:31:23.709Z,7.50
2018-10-02T18:33:52.911Z,7.50
2018-10-02T18:36:21.905Z,7.50
2018-10-02T18:38:50.730Z,7.80
2018-10-02T18:41:19.626Z,7.90
2018-10-02T18:43:48.455Z,8.00
2018-10-02T18:46:17.285Z,8.10
2018-10-02T18:48:47.250Z,8.10
2018-10-02T18:51:16.280Z,8.20
2018-10-02T18:53:45.450Z,8.30
2018-10-02T18:56:14.441Z,8.40
2018-10-02T18:58:43.577Z,8.50
2018-10-02T19:01:12.758Z,8.70
2018-10-02T19:03:41.885Z,8.80
2018-10-02T19:06:11.067Z,8.80
2018-10-02T19:08:45.230Z,8.90
2018-10-02T19:11:19.784Z,9.00
2018-10-02T19:13:49.130Z,9.20
2018-10-02T19:16:23.364Z,9.30
2018-10-02T19:18:52.475Z,9.40
2018-10-02T19:21:21.478Z,9.40
2018-10-02T19:26:20.981Z,9.40
2018-10-02T19:28:50.480Z,9.50
2018-10-02T19:31:24.770Z,9.50
2018-10-02T19:33:54.150Z,9.50
2018-10-02T19:36:23.343Z,9.40
2018-10-02T19:38:56.777Z,9.20
2018-10-02T19:41:26.685Z,9.20
2018-10-02T19:43:56.046Z,9.20
2018-10-02T19:46:28.817Z,9.10
2018-10-02T19:48:57.928Z,9.00
2018-10-02T19:51:32.185Z,9.00
2018-10-02T19:54:01.218Z,9.10
2018-10-02T19:56:30.218Z,9.20
2018-10-02T19:58:59.334Z,9.20
2018-10-02T20:01:28.525Z,9.30
2018-10-02T20:03:57.893Z,9.30
2018-10-02T20:06:27.032Z,9.30
2018-10-02T20:08:56.110Z,9.30
2018-10-02T20:11:25.173Z,9.30
2018-10-02T20:13:54.193Z,9.40
2018-10-02T20:16:23.381Z,9.50
2018-10-02T20:18:52.357Z,9.60
2018-10-02T20:21:21.526Z,9.60
2018-10-02T20:23:50.678Z,9.50
2018-10-02T20:26:19.858Z,9.50
2018-10-02T20:28:49.972Z,9.60
2018-10-02T20:31:19.110Z,9.60
2018-10-02T20:33:48.261Z,9.60
2018-10-02T20:36:17.502Z,9.60
2018-10-02T20:38:46.678Z,9.60
2018-10-02T20:41:15.861Z,9.60
2018-10-02T20:43:45.502Z,9.60
2018-10-02T20:46:14.649Z,9.60
2018-10-02T20:48:43.649Z,9.60
2018-10-02T20:51:12.676Z,9.60
2018-10-02T20:53:41.727Z,9.60
2018-10-02T20:56:10.821Z,9.50
2018-10-02T20:58:39.941Z,9.60
2018-10-02T21:01:09.030Z,9.50
2018-10-02T21:03:38.042Z,9.50
2018-10-02T21:06:07.381Z,9.50
2018-10-02T21:08:36.514Z,9.60
2018-10-02T21:11:05.728Z,9.50
2018-10-02T21:13:35.049Z,9.50
2018-10-02T21:16:04.345Z,9.50
2018-10-02T21:18:33.714Z,9.50
2018-10-02T21:21:02.713Z,9.50
2018-10-02T21:23:31.806Z,9.50
2018-10-02T21:26:00.899Z,9.40
2018-10-02T21:28:29.892Z,9.40
2018-10-02T21:30:58.886Z,9.40
2018-10-02T21:33:27.957Z,9.40
2018-10-02T21:35:57.201Z,9.40
2018-10-02T21:38:26.253Z,9.30
2018-10-02T21:40:55.239Z,9.30
2018-10-02T21:43:24.394Z,9.20
2018-10-02T21:45:53.429Z,9.20
2018-10-02T21:48:22.571Z,9.20
2018-10-02T21:50:51.789Z,9.10
2018-10-02T21:53:20.921Z,9.20
2018-10-02T21:55:49.913Z,9.20
2018-10-02T21:58:19.045Z,9.20
2018-10-02T22:00:48.325Z,9.20
2018-10-02T22:03:17.417Z,9.20
2018-10-02T22:05:46.524Z,9.20
2018-10-02T22:08:15.718Z,9.30
2018-10-02T22:10:44.801Z,9.20
2018-10-02T22:13:14.141Z,9.10
2018-10-02T22:15:43.273Z,9.10
2018-10-02T22:18:12.309Z,9.10
2018-10-02T22:20:41.393Z,9.10
2018-10-02T22:23:10.564Z,9.10
2018-10-02T22:25:39.685Z,9.10
2018-10-02T22:28:08.925Z,9.10
2018-10-02T22:30:38.057Z,9.10
2018-10-02T22:33:07.326Z,9.10
2018-10-02T22:35:36.481Z,9.00
2018-10-02T22:38:05.557Z,9.00
2018-10-02T22:40:34.838Z,9.00
2018-10-02T22:43:03.958Z,9.00
2018-10-02T22:45:32.946Z,8.90
2018-10-02T22:48:02.333Z,8.90
2018-10-02T22:50:31.688Z,8.90
2018-10-02T22:53:00.797Z,8.90
2018-10-02T22:55:29.808Z,8.90
2018-10-02T22:57:58.849Z,8.90
2018-10-02T23:00:28.005Z,8.80
2018-10-02T23:02:56.988Z,8.80
2018-10-02T23:05:26.013Z,8.80
2018-10-02T23:07:55.085Z,8.90
2018-10-02T23:10:24.209Z,8.90
2018-10-02T23:12:53.298Z,8.90
2018-10-02T23:15:22.940Z,8.90
2018-10-02T23:17:51.994Z,8.90
2018-10-02T23:20:21.154Z,8.90
2018-10-02T23:22:50.175Z,8.90
2018-10-02T23:25:19.177Z,8.90
2018-10-02T23:27:48.441Z,9.00
2018-10-02T23:30:18.185Z,9.00
2018-10-02T23:32:47.582Z,9.00
2018-10-02T23:35:16.718Z,8.90
2018-10-02T23:37:45.790Z,8.90
2018-10-02T23:40:15.001Z,8.90
2018-10-02T23:42:44.205Z,8.90
2018-10-02T23:45:13.237Z,8.90
2018-10-02T23:47:42.333Z,8.90
2018-10-02T23:50:11.363Z,8.90
2018-10-02T23:52:40.524Z,8.90
2018-10-02T23:55:09.534Z,8.90
2018-10-02T23:57:38.748Z,8.90
